Aviation Digital Data Service (ADDS)

Output produced by METARs form (1713 UTC 20 January 2019)
found at http://www.aviationweather.gov/metar/data/
 
KUAO 201628Z 2016/2112 01009KT 6SM -RA BR FEW006 OVC035 
     TEMPO 2016/2020 4SM -RA BR SCT008 BKN015 OVC035 
     FM210500 00000KT 1SM BR BKN003 OVC040
       
KUES 201507Z 2015/2112 34012G20KT P6SM SCT250 
     FM210100 34007KT P6SM SCT250
       
KUIN 201120Z 2012/2112 33008KT P6SM BKN250 
     FM201600 34006KT P6SM VCSH BKN060 
     FM201800 35006KT 5SM -SN OVC028 
     FM202200 01005KT P6SM VCSH BKN045 
     FM210000 03005KT P6SM BKN070
       
KUKI 201413Z 2014/2112 24004KT P6SM FEW005 SCT024 OVC035 
     TEMPO 2014/2016 4SM -RA BKN020 
     FM201800 25009KT 6SM -SHRA SCT012 BKN050 
     FM202300 29009KT 4SM SHRA BKN020 OVC040 
     FM210400 34004KT P6SM SCT050
       
KUNV 201540Z 2016/2112 32016G26KT P6SM BKN018 OVC025 
     FM201700 31018G28KT P6SM BKN025 OVC040 
     FM201900 31022G32KT P6SM SCT025 OVC040
       
KUTS 201120Z 2012/2112 33006KT P6SM SKC 
     FM210000 VRB03KT P6SM FEW250